Arcadia, Wisconsin
Current Conditions -  °F | °C
As of 2:53 AM on Friday 31 Oct 2014 (Local Time) from KONA Reporting Station
Clear Clear  
Wind Chill: -4°   Ceiling: Unl
Heat Index:   Visibility: 10mi
Dew Point: -5°   Wind: 14mph
Humidity: 65%   Direction: 350°N
Pressure: 30.33"   Gusts: 25mph
Location:  44.25°N, 91.5°W
Report Text: KONA 310753Z AUTO 35012G22KT 10SM CLR 01/M05 A3033 RMK AO2
Loading
Personal Weather Stations






























Interactive Weather Map
Tropical Storm Tracking
New forecast layout! Learn more

10-Day Weather Forecast

Advertisements
Track Severe Weather on mobile